Time,TemperatureF,DewpointF,PressureIn,WindDirection,WindDirectionDegrees,WindSpeedMPH,WindSpeedGustMPH,Humidity,HourlyPrecipIn,Conditions,Clouds,dailyrainin,SolarRadiationWatts/m^2,SoftwareType,DateUTC
2013-01-14 00:02:00,22.0,7.0,-100.00,ESE,108,1.0,11.0,51,0.00,,,0.00,0.000000,,2013-01-14 08:02:00,
2013-01-14 00:11:00,22.0,7.0,-100.00,ESE,108,1.0,11.0,51,0.00,,,0.00,0.000000,,2013-01-14 08:11:00,
2013-01-14 00:43:00,23.0,3.0,-100.00,ESE,105,3.0,10.0,42,0.00,,,0.00,0.000000,,2013-01-14 08:43:00,
2013-01-14 00:53:00,23.0,3.0,-100.00,ESE,105,3.0,10.0,42,0.00,,,0.00,0.000000,,2013-01-14 08:53:00,
2013-01-14 01:02:00,23.0,3.0,-100.00,ESE,105,3.0,10.0,42,0.00,,,0.00,0.000000,,2013-01-14 09:02:00,
2013-01-14 01:11:00,23.0,3.0,-100.00,ESE,105,3.0,10.0,42,0.00,,,0.00,0.000000,,2013-01-14 09:11:00,
2013-01-14 01:34:00,21.0,-2.0,-100.00,SSE,159,1.0,15.0,36,0.00,,,0.00,0.000000,,2013-01-14 09:34:00,
2013-01-14 01:43:00,21.0,-2.0,-100.00,SSE,159,1.0,15.0,36,0.00,,,0.00,0.000000,,2013-01-14 09:43:00,
2013-01-14 01:53:00,21.0,-2.0,-100.00,SSE,159,1.0,15.0,36,0.00,,,0.00,0.000000,,2013-01-14 09:53:00,
2013-01-14 02:02:00,21.0,-2.0,-100.00,SSE,159,1.0,15.0,36,0.00,,,0.00,0.000000,,2013-01-14 10:02:00,
2013-01-14 02:11:00,21.0,-2.0,-100.00,SSE,159,1.0,15.0,36,0.00,,,0.00,0.000000,,2013-01-14 10:11:00,
2013-01-14 02:43:00,19.0,-1.0,-100.00,SE,130,0.0,12.0,40,0.00,,,0.00,0.000000,,2013-01-14 10:43:00,
2013-01-14 02:53:00,19.0,-1.0,-100.00,SE,130,0.0,12.0,40,0.00,,,0.00,0.000000,,2013-01-14 10:53:00,
2013-01-14 03:02:00,19.0,-1.0,-100.00,SE,130,0.0,12.0,40,0.00,,,0.00,0.000000,,2013-01-14 11:02:00,
2013-01-14 03:11:00,19.0,-1.0,-100.00,SE,130,0.0,12.0,40,0.00,,,0.00,0.000000,,2013-01-14 11:11:00,
2013-01-14 03:43:00,17.0,0.0,-100.00,SE,128,2.0,7.0,47,0.00,,,0.00,0.000000,,2013-01-14 11:43:00,
2013-01-14 03:53:00,17.0,0.0,-100.00,SE,128,2.0,7.0,47,0.00,,,0.00,0.000000,,2013-01-14 11:53:00,
2013-01-14 04:02:00,17.0,0.0,-100.00,SE,128,2.0,7.0,47,0.00,,,0.00,0.000000,,2013-01-14 12:02:00,
2013-01-14 04:12:00,17.0,0.0,-100.00,SE,128,2.0,7.0,47,0.00,,,0.00,0.000000,,2013-01-14 12:12:00,
2013-01-14 04:33:00,18.0,0.0,-100.00,East,97,3.0,8.0,45,0.00,,,0.00,0.000000,,2013-01-14 12:33:00,
2013-01-14 04:43:00,18.0,0.0,-100.00,East,97,3.0,8.0,45,0.00,,,0.00,0.000000,,2013-01-14 12:43:00,
2013-01-14 04:53:00,18.0,0.0,-100.00,East,97,3.0,8.0,45,0.00,,,0.00,0.000000,,2013-01-14 12:53:00,
2013-01-14 05:03:00,18.0,0.0,-100.00,East,97,3.0,8.0,45,0.00,,,0.00,0.000000,,2013-01-14 13:03:00,
2013-01-14 05:12:00,18.0,0.0,-100.00,East,97,3.0,8.0,45,0.00,,,0.00,0.000000,,2013-01-14 13:12:00,
2013-01-14 05:43:00,17.0,2.0,-100.00,ESE,105,2.0,7.0,52,0.00,,,0.00,0.000000,,2013-01-14 13:43:00,
2013-01-14 05:53:00,17.0,2.0,-100.00,ESE,105,2.0,7.0,52,0.00,,,0.00,0.000000,,2013-01-14 13:53:00,
2013-01-14 06:02:00,17.0,2.0,-100.00,ESE,105,2.0,7.0,52,0.00,,,0.00,0.000000,,2013-01-14 14:02:00,
2013-01-14 06:12:00,17.0,2.0,-100.00,ESE,105,2.0,7.0,52,0.00,,,0.00,0.000000,,2013-01-14 14:12:00,
2013-01-14 06:33:00,16.0,1.0,-100.00,East,95,3.0,7.0,51,0.00,,,0.00,0.000000,,2013-01-14 14:33:00,
2013-01-14 06:43:00,16.0,1.0,-100.00,East,95,3.0,7.0,51,0.00,,,0.00,0.000000,,2013-01-14 14:43:00,
2013-01-14 06:53:00,16.0,1.0,-100.00,East,95,3.0,7.0,51,0.00,,,0.00,0.000000,,2013-01-14 14:53:00,
2013-01-14 07:03:00,16.0,1.0,-100.00,East,95,3.0,7.0,51,0.00,,,0.00,0.000000,,2013-01-14 15:03:00,
2013-01-14 07:12:00,16.0,1.0,-100.00,East,95,3.0,7.0,51,0.00,,,0.00,0.000000,,2013-01-14 15:12:00,
2013-01-14 07:33:00,17.0,-1.0,-100.00,SE,132,4.0,10.0,45,0.00,,,0.00,3.000000,,2013-01-14 15:33:00,
2013-01-14 07:43:00,17.0,-1.0,-100.00,SE,132,4.0,10.0,45,0.00,,,0.00,3.000000,,2013-01-14 15:43:00,
2013-01-14 07:53:00,17.0,-1.0,-100.00,SE,132,4.0,10.0,45,0.00,,,0.00,3.000000,,2013-01-14 15:53:00,
2013-01-14 08:02:00,17.0,-1.0,-100.00,SE,132,4.0,10.0,45,0.00,,,0.00,3.000000,,2013-01-14 16:02:00,
2013-01-14 08:12:00,17.0,-1.0,-100.00,SE,132,4.0,10.0,45,0.00,,,0.00,3.000000,,2013-01-14 16:12:00,
2013-01-14 08:33:00,30.0,-5.0,-100.00,ESE,117,1.0,7.0,21,0.00,,,0.00,161.000000,,2013-01-14 16:33:00,
2013-01-14 09:12:00,30.0,-5.0,-100.00,ESE,117,1.0,7.0,21,0.00,,,0.00,161.000000,,2013-01-14 17:12:00,
2013-01-14 09:43:00,35.0,-2.0,-100.00,WNW,301,1.0,7.0,20,0.00,,,0.00,409.000000,,2013-01-14 17:43:00,
2013-01-14 09:53:00,35.0,-2.0,-100.00,WNW,301,1.0,7.0,20,0.00,,,0.00,409.000000,,2013-01-14 17:53:00,
2013-01-14 10:03:00,35.0,-2.0,-100.00,WNW,301,1.0,7.0,20,0.00,,,0.00,409.000000,,2013-01-14 18:03:00,
2013-01-14 10:12:00,35.0,-2.0,-100.00,WNW,301,1.0,7.0,20,0.00,,,0.00,409.000000,,2013-01-14 18:12:00,
2013-01-14 10:33:00,37.0,0.0,-100.00,WNW,301,4.0,9.0,20,0.00,,,0.00,578.000000,,2013-01-14 18:33:00,
2013-01-14 11:12:00,37.0,0.0,-100.00,WNW,301,4.0,9.0,20,0.00,,,0.00,578.000000,,2013-01-14 19:12:00,
2013-01-14 11:43:00,39.0,2.0,-100.00,NW,324,2.0,10.0,21,0.00,,,0.00,658.000000,,2013-01-14 19:43:00,
2013-01-14 11:53:00,39.0,2.0,-100.00,NW,324,2.0,10.0,21,0.00,,,0.00,658.000000,,2013-01-14 19:53:00,
2013-01-14 12:03:00,39.0,2.0,-100.00,NW,324,2.0,10.0,21,0.00,,,0.00,658.000000,,2013-01-14 20:03:00,
2013-01-14 12:12:00,39.0,2.0,-100.00,NW,324,2.0,10.0,21,0.00,,,0.00,658.000000,,2013-01-14 20:12:00,
2013-01-14 12:33:00,41.0,1.0,-100.00,West,275,2.0,8.0,18,0.00,,,0.00,787.000000,,2013-01-14 20:33:00,
2013-01-14 12:43:00,41.0,1.0,-100.00,West,275,2.0,8.0,18,0.00,,,0.00,787.000000,,2013-01-14 20:43:00,
2013-01-14 12:53:00,41.0,1.0,-100.00,West,275,2.0,8.0,18,0.00,,,0.00,787.000000,,2013-01-14 20:53:00,
2013-01-14 13:02:00,41.0,1.0,-100.00,West,275,2.0,8.0,18,0.00,,,0.00,787.000000,,2013-01-14 21:02:00,
2013-01-14 13:43:00,40.0,3.0,-100.00,WSW,246,3.0,11.0,21,-99.99,,,0.00,770.000000,,2013-01-14 21:43:00,
2013-01-14 13:53:00,40.0,3.0,-100.00,WSW,246,3.0,11.0,21,-99.99,,,0.00,770.000000,,2013-01-14 21:53:00,
2013-01-14 14:12:00,40.0,3.0,-100.00,WSW,246,3.0,11.0,21,-99.99,,,0.00,770.000000,,2013-01-14 22:12:00,
2013-01-14 14:43:00,41.0,2.0,-100.00,West,271,2.0,11.0,19,0.00,,,-99.99,679.000000,,2013-01-14 22:43:00,
2013-01-14 14:52:00,41.0,2.0,-100.00,West,271,2.0,11.0,19,0.00,,,-99.99,679.000000,,2013-01-14 22:52:00,
2013-01-14 15:02:00,41.0,2.0,-100.00,West,271,2.0,11.0,19,0.00,,,-99.99,679.000000,,2013-01-14 23:02:00,
2013-01-14 15:12:00,41.0,2.0,-100.00,West,271,2.0,11.0,19,0.00,,,-99.99,679.000000,,2013-01-14 23:12:00,
2013-01-14 15:33:00,41.0,0.0,-100.00,West,262,1.0,9.0,17,0.00,,,0.00,511.000000,,2013-01-14 23:33:00,
2013-01-14 15:43:00,41.0,0.0,-100.00,West,262,1.0,9.0,17,0.00,,,0.00,511.000000,,2013-01-14 23:43:00,
2013-01-14 15:53:00,41.0,0.0,-100.00,West,262,1.0,9.0,17,0.00,,,0.00,511.000000,,2013-01-14 23:53:00,
2013-01-14 16:02:00,41.0,0.0,-100.00,West,262,1.0,9.0,17,0.00,,,0.00,511.000000,,2013-01-15 00:02:00,
2013-01-14 16:12:00,41.0,0.0,-100.00,West,262,1.0,9.0,17,0.00,,,0.00,511.000000,,2013-01-15 00:12:00,
2013-01-14 16:43:00,37.0,-8.0,-100.00,SE,142,3.0,7.0,14,0.00,,,0.00,279.000000,,2013-01-15 00:43:00,
2013-01-14 16:53:00,37.0,-8.0,-100.00,SE,142,3.0,7.0,14,0.00,,,0.00,279.000000,,2013-01-15 00:53:00,
2013-01-14 17:02:00,37.0,-8.0,-100.00,SE,142,3.0,7.0,14,0.00,,,0.00,279.000000,,2013-01-15 01:02:00,
2013-01-14 17:12:00,37.0,-8.0,-100.00,SE,142,3.0,7.0,14,0.00,,,0.00,279.000000,,2013-01-15 01:12:00,
2013-01-14 17:43:00,28.0,-8.0,-100.00,SE,136,0.0,9.0,20,0.00,,,0.00,15.000000,,2013-01-15 01:43:00,
2013-01-14 17:52:00,28.0,-8.0,-100.00,SE,136,0.0,9.0,20,0.00,,,0.00,15.000000,,2013-01-15 01:52:00,
2013-01-14 18:02:00,28.0,-8.0,-100.00,SE,136,0.0,9.0,20,0.00,,,0.00,15.000000,,2013-01-15 02:02:00,
2013-01-14 18:11:00,28.0,-8.0,-100.00,SE,136,0.0,9.0,20,0.00,,,0.00,15.000000,,2013-01-15 02:11:00,
2013-01-14 18:42:00,25.0,-6.0,-100.00,ESE,120,2.0,10.0,25,0.00,,,0.00,0.000000,,2013-01-15 02:42:00,
2013-01-14 18:53:00,25.0,-6.0,-100.00,ESE,120,2.0,10.0,25,0.00,,,0.00,0.000000,,2013-01-15 02:53:00,
2013-01-14 19:02:00,25.0,-6.0,-100.00,ESE,120,2.0,10.0,25,0.00,,,0.00,0.000000,,2013-01-15 03:02:00,
2013-01-14 19:12:00,25.0,-6.0,-100.00,ESE,120,2.0,10.0,25,0.00,,,0.00,0.000000,,2013-01-15 03:12:00,
2013-01-14 19:33:00,22.0,-5.0,-100.00,SE,124,0.0,7.0,30,0.00,,,0.00,0.000000,,2013-01-15 03:33:00,
2013-01-14 19:42:00,22.0,-5.0,-100.00,SE,124,0.0,7.0,30,0.00,,,0.00,0.000000,,2013-01-15 03:42:00,
2013-01-14 19:52:00,22.0,-5.0,-100.00,SE,124,0.0,7.0,30,0.00,,,0.00,0.000000,,2013-01-15 03:52:00,
2013-01-14 20:02:00,22.0,-5.0,-100.00,SE,124,0.0,7.0,30,0.00,,,0.00,0.000000,,2013-01-15 04:02:00,
2013-01-14 20:12:00,22.0,-5.0,-100.00,SE,124,0.0,7.0,30,0.00,,,0.00,0.000000,,2013-01-15 04:12:00,
2013-01-14 20:42:00,22.0,-4.0,-100.00,ESE,111,0.0,7.0,31,0.00,,,0.00,0.000000,,2013-01-15 04:42:00,
2013-01-14 20:52:00,22.0,-4.0,-100.00,ESE,111,0.0,7.0,31,0.00,,,0.00,0.000000,,2013-01-15 04:52:00,
2013-01-14 21:03:00,22.0,-4.0,-100.00,ESE,111,0.0,7.0,31,0.00,,,0.00,0.000000,,2013-01-15 05:03:00,
2013-01-14 21:12:00,22.0,-4.0,-100.00,ESE,111,0.0,7.0,31,0.00,,,0.00,0.000000,,2013-01-15 05:12:00,
2013-01-14 21:33:00,23.0,-2.0,-100.00,NNE,18,0.0,6.0,32,0.00,,,0.00,0.000000,,2013-01-15 05:33:00,
2013-01-14 21:42:00,23.0,-2.0,-100.00,NNE,18,0.0,6.0,32,0.00,,,0.00,0.000000,,2013-01-15 05:42:00,
2013-01-14 21:52:00,23.0,-2.0,-100.00,NNE,18,0.0,6.0,32,0.00,,,0.00,0.000000,,2013-01-15 05:52:00,
2013-01-14 22:02:00,23.0,-2.0,-100.00,NNE,18,0.0,6.0,32,0.00,,,0.00,0.000000,,2013-01-15 06:02:00,
2013-01-14 22:12:00,23.0,-2.0,-100.00,NNE,18,0.0,6.0,32,0.00,,,0.00,0.000000,,2013-01-15 06:12:00,
2013-01-14 22:43:00,22.0,-1.0,-100.00,SE,140,0.0,5.0,35,0.00,,,0.00,0.000000,,2013-01-15 06:43:00,
2013-01-14 22:53:00,22.0,-1.0,-100.00,SE,140,0.0,5.0,35,0.00,,,0.00,0.000000,,2013-01-15 06:53:00,
2013-01-14 23:02:00,22.0,-1.0,-100.00,SE,140,0.0,5.0,35,0.00,,,0.00,0.000000,,2013-01-15 07:02:00,
2013-01-14 23:12:00,22.0,-1.0,-100.00,SE,140,0.0,5.0,35,0.00,,,0.00,0.000000,,2013-01-15 07:12:00,
2013-01-14 23:33:00,21.0,-5.0,-100.00,East,93,0.0,6.0,31,0.00,,,0.00,0.000000,,2013-01-15 07:33:00,
2013-01-14 23:43:00,21.0,-5.0,-100.00,East,93,0.0,6.0,31,0.00,,,0.00,0.000000,,2013-01-15 07:43:00,
2013-01-14 23:52:00,21.0,-5.0,-100.00,East,93,0.0,6.0,31,0.00,,,0.00,0.000000,,2013-01-15 07:52:00,